アシガバート の空港の天気 - METARとTAF

アシガバート空港 ( UTAA / ASB ) - トルクメニスタン アシガバート
飛行場実況気象(Metar)
観測時間07/29 06:00 TMT (07/29 01:00 UTC)
風向・風速西北西 7m/s
視程10km以上
天気現象
全天の4割程度の雲 雲底高度 3020m
気温28℃
湿度62%
気圧1006hPa
METARUTAA 290100Z 29014KT 9999 SCT099 28/20 Q1006 R88/70D NOSIG
過去の天気等 Google飛行場航空写真 Wunderground天気予報

過去48時間のMETAR

飛行場予報(TAF)
発表時間: 7/29 03:45 TMT (7/28 22:45 UTC)
予報対象時間: 29日5時 TMT ~ 30日5時 TMT
風向・風速西 5m/s 瞬間風速 10m/s
視程6000m
全天の4割程度の積乱雲 雲底高度 1520m
全天の8割程度の雲 雲底高度 1520m
29日7時 TMT ~ 29日11時 TMT に一時的に
風向・風速西北西 8m/s 瞬間風速 13m/s
29日11時 TMT ~ 29日17時 TMT に一時的に
風向・風速不定 15m/s
視程1500m
天気現象弱い雷雨 塵嵐
全天を覆う雲 鉛直視程 150m
TAF UTAA 282245Z 2900/2924 27010G20KT 6000 SCT050CB BKN050
TEMPO 2902/2906 30016G26KT
TEMPO 2906/2912 VRB30KT 1500 -TSRA DS VV005